createdAt,value
2018-05-06T00:01:01.770Z,99.90
2018-05-06T00:03:27.791Z,99.90
2018-05-06T00:05:55.050Z,99.90
2018-05-06T00:08:21.060Z,99.90
2018-05-06T00:10:47.105Z,99.90
2018-05-06T00:13:13.151Z,99.90
2018-05-06T00:15:39.192Z,99.90
2018-05-06T00:18:05.961Z,99.90
2018-05-06T00:20:32.804Z,99.90
2018-05-06T00:22:59.571Z,99.90
2018-05-06T00:25:26.355Z,99.90
2018-05-06T00:27:52.376Z,99.90
2018-05-06T00:30:18.565Z,99.90
2018-05-06T00:32:44.633Z,99.90
2018-05-06T00:35:11.404Z,99.90
2018-05-06T00:40:10.378Z,99.90
2018-05-06T00:42:36.416Z,99.90
2018-05-06T00:45:02.478Z,99.90
2018-05-06T00:47:35.444Z,99.90
2018-05-06T00:50:01.817Z,99.90
2018-05-06T00:52:28.612Z,99.90
2018-05-06T00:54:54.671Z,99.90
2018-05-06T00:57:20.692Z,99.90
2018-05-06T00:59:46.762Z,99.90
2018-05-06T01:02:12.806Z,99.90
2018-05-06T01:04:38.825Z,99.90
2018-05-06T01:07:04.895Z,99.90
2018-05-06T01:09:30.962Z,99.90
2018-05-06T01:11:57.043Z,99.90
2018-05-06T01:14:23.201Z,99.90
2018-05-06T01:16:49.227Z,99.90
2018-05-06T01:19:15.251Z,99.90
2018-05-06T01:21:41.266Z,99.90
2018-05-06T01:24:07.342Z,99.90
2018-05-06T01:26:33.462Z,99.90
2018-05-06T01:28:59.508Z,99.90
2018-05-06T01:31:25.554Z,99.90
2018-05-06T01:33:51.589Z,99.90
2018-05-06T01:36:17.678Z,99.90
2018-05-06T01:38:44.462Z,99.90
2018-05-06T01:41:10.502Z,99.90
2018-05-06T01:43:36.534Z,99.90
2018-05-06T01:46:02.594Z,99.90
2018-05-06T01:48:28.642Z,99.90
2018-05-06T01:50:54.685Z,99.90
2018-05-06T01:53:20.718Z,99.90
2018-05-06T01:55:46.888Z,99.90
2018-05-06T01:58:12.922Z,99.90
2018-05-06T02:00:39.696Z,99.90
2018-05-06T02:03:05.829Z,99.90
2018-05-06T02:05:32.635Z,99.90
2018-05-06T02:07:59.446Z,99.90
2018-05-06T02:10:25.502Z,99.90
2018-05-06T02:12:51.542Z,99.90
2018-05-06T02:15:17.574Z,99.90
2018-05-06T02:17:43.622Z,99.90
2018-05-06T02:20:09.663Z,99.90
2018-05-06T02:22:35.697Z,99.90
2018-05-06T02:25:01.785Z,99.90
2018-05-06T02:27:28.592Z,99.90
2018-05-06T02:29:54.644Z,99.90
2018-05-06T02:32:20.725Z,99.90
2018-05-06T02:34:46.795Z,99.90
2018-05-06T02:37:12.823Z,99.90
2018-05-06T02:39:38.902Z,99.90
2018-05-06T02:42:04.947Z,99.90
2018-05-06T02:44:30.979Z,99.90
2018-05-06T02:46:57.009Z,99.90
2018-05-06T02:49:23.054Z,99.90
2018-05-06T02:51:49.120Z,99.90
2018-05-06T02:54:15.268Z,99.90
2018-05-06T02:56:41.280Z,99.90
2018-05-06T02:59:07.280Z,99.90
2018-05-06T03:01:33.826Z,99.90
2018-05-06T03:03:59.896Z,99.90
2018-05-06T03:06:25.914Z,99.90
2018-05-06T03:08:51.932Z,99.90
2018-05-06T03:11:17.998Z,99.90
2018-05-06T03:13:44.045Z,99.90
2018-05-06T03:16:10.104Z,99.90
2018-05-06T03:18:36.112Z,99.90
2018-05-06T03:21:02.160Z,99.90
2018-05-06T03:23:29.247Z,99.90
2018-05-06T03:25:55.277Z,99.90
2018-05-06T03:28:21.336Z,99.90
2018-05-06T03:30:47.375Z,99.90
2018-05-06T03:33:13.406Z,99.90
2018-05-06T03:35:39.479Z,99.90
2018-05-06T03:38:05.543Z,99.90
2018-05-06T03:40:31.611Z,99.90
2018-05-06T03:42:57.667Z,99.90
2018-05-06T03:45:23.752Z,99.90
2018-05-06T03:47:50.113Z,99.90
2018-05-06T03:50:16.898Z,99.90
2018-05-06T03:52:42.933Z,99.90
2018-05-06T03:55:09.828Z,99.90
2018-05-06T03:57:48.323Z,99.90
2018-05-06T04:00:26.598Z,99.90
2018-05-06T04:02:52.659Z,99.90
2018-05-06T04:05:19.468Z,99.90
2018-05-06T04:07:45.547Z,99.90
2018-05-06T04:10:11.597Z,99.90
2018-05-06T04:12:37.612Z,99.90
2018-05-06T04:15:03.689Z,99.90
2018-05-06T04:17:29.724Z,99.90
2018-05-06T04:19:55.755Z,99.90
2018-05-06T04:22:22.190Z,99.90
2018-05-06T04:24:48.235Z,99.90
2018-05-06T04:27:14.265Z,99.90
2018-05-06T04:29:40.301Z,99.90
2018-05-06T04:32:06.846Z,99.90
2018-05-06T04:34:33.626Z,99.90
2018-05-06T04:36:59.684Z,99.90
2018-05-06T04:39:25.709Z,99.90
2018-05-06T04:41:51.739Z,99.90
2018-05-06T04:44:18.102Z,99.90
2018-05-06T04:46:44.134Z,99.90
2018-05-06T04:49:10.229Z,99.90
2018-05-06T04:51:37.007Z,99.90
2018-05-06T04:54:03.126Z,99.90
2018-05-06T04:56:29.176Z,99.90
2018-05-06T04:58:55.283Z,99.90
2018-05-06T05:01:22.047Z,99.90
2018-05-06T05:03:48.822Z,99.90
2018-05-06T05:06:14.901Z,99.90
2018-05-06T05:08:40.946Z,99.90
2018-05-06T05:11:06.977Z,99.90
2018-05-06T05:13:33.021Z,99.90
2018-05-06T05:15:59.039Z,99.90
2018-05-06T05:18:25.043Z,99.90
2018-05-06T05:20:51.203Z,99.90
2018-05-06T05:23:17.193Z,99.90
2018-05-06T05:25:43.990Z,99.90
2018-05-06T05:28:10.031Z,99.90
2018-05-06T05:30:36.104Z,99.90
2018-05-06T05:33:02.465Z,99.90
2018-05-06T05:35:28.516Z,99.90
2018-05-06T05:37:54.560Z,99.90
2018-05-06T05:40:20.605Z,99.90
2018-05-06T05:42:46.687Z,99.90
2018-05-06T05:45:12.798Z,99.90
2018-05-06T05:47:38.861Z,99.90
2018-05-06T05:50:04.894Z,99.90
2018-05-06T05:52:30.997Z,99.90
2018-05-06T05:54:57.040Z,99.90
2018-05-06T05:57:23.061Z,99.90
2018-05-06T05:59:49.084Z,99.90
2018-05-06T06:02:16.253Z,99.90
2018-05-06T06:04:42.261Z,99.90
2018-05-06T06:07:08.286Z,99.90
2018-05-06T06:09:34.630Z,99.90
2018-05-06T06:12:00.701Z,99.90
2018-05-06T06:14:26.780Z,99.90
2018-05-06T06:16:52.821Z,99.90
2018-05-06T06:19:18.884Z,99.90
2018-05-06T06:21:44.929Z,99.90
2018-05-06T06:24:10.996Z,99.90
2018-05-06T06:26:37.049Z,99.90
2018-05-06T06:29:03.981Z,99.90
2018-05-06T06:31:30.785Z,99.90
2018-05-06T06:33:56.837Z,99.90
2018-05-06T06:36:22.888Z,99.90
2018-05-06T06:38:48.957Z,99.90
2018-05-06T06:41:15.142Z,99.90
2018-05-06T06:43:41.202Z,99.90
2018-05-06T06:46:07.229Z,99.90
2018-05-06T06:48:33.313Z,99.90
2018-05-06T06:50:59.377Z,99.90
2018-05-06T06:53:25.410Z,99.90
2018-05-06T06:55:51.537Z,99.90
2018-05-06T06:58:17.516Z,99.90
2018-05-06T07:00:43.570Z,99.90
2018-05-06T07:03:10.350Z,99.90
2018-05-06T07:05:36.362Z,99.90
2018-05-06T07:08:02.728Z,99.90
2018-05-06T07:10:28.838Z,99.90
2018-05-06T07:12:54.892Z,99.90
2018-05-06T07:15:21.716Z,99.90
2018-05-06T07:17:47.829Z,99.90
2018-05-06T07:20:13.902Z,99.90
2018-05-06T07:22:40.069Z,99.90
2018-05-06T07:25:06.854Z,99.90
2018-05-06T07:27:32.898Z,99.90
2018-05-06T07:29:58.895Z,99.90
2018-05-06T07:32:24.949Z,99.90
2018-05-06T07:34:51.025Z,99.90
2018-05-06T07:37:17.415Z,99.90
2018-05-06T07:39:44.226Z,99.90
2018-05-06T07:42:10.353Z,99.90
2018-05-06T07:44:36.426Z,99.90
2018-05-06T07:47:02.479Z,99.90
2018-05-06T07:49:29.273Z,99.90
2018-05-06T07:51:55.348Z,99.90
2018-05-06T07:54:21.387Z,99.90
2018-05-06T07:56:47.469Z,99.90
2018-05-06T07:59:13.663Z,99.90
2018-05-06T08:01:39.741Z,99.90
2018-05-06T08:04:05.790Z,99.90
2018-05-06T08:06:31.858Z,99.90
2018-05-06T08:08:57.873Z,99.90
2018-05-06T08:11:24.297Z,99.90
2018-05-06T08:13:50.369Z,99.90
2018-05-06T08:16:16.488Z,99.90
2018-05-06T08:18:42.464Z,99.90
2018-05-06T08:21:08.563Z,99.90
2018-05-06T08:23:34.730Z,99.90
2018-05-06T08:26:00.784Z,99.90
2018-05-06T08:28:26.898Z,99.90
2018-05-06T08:30:52.974Z,99.90
2018-05-06T08:33:19.771Z,99.90
2018-05-06T08:35:45.841Z,99.90
2018-05-06T08:38:11.885Z,99.90
2018-05-06T08:40:37.943Z,99.90
2018-05-06T08:43:04.741Z,99.90
2018-05-06T08:45:30.862Z,99.90
2018-05-06T08:47:56.942Z,99.90
2018-05-06T08:50:23.110Z,99.90
2018-05-06T08:52:49.154Z,99.90
2018-05-06T08:55:16.038Z,99.90
2018-05-06T08:57:42.088Z,99.90
2018-05-06T09:00:08.105Z,99.90
2018-05-06T09:02:34.157Z,99.90
2018-05-06T09:05:00.233Z,99.90
2018-05-06T09:07:26.306Z,99.90
2018-05-06T09:09:52.353Z,99.90
2018-05-06T09:12:18.433Z,99.90
2018-05-06T09:14:44.459Z,99.90
2018-05-06T09:17:10.514Z,99.90
2018-05-06T09:19:36.601Z,99.90
2018-05-06T09:22:03.483Z,99.90
2018-05-06T09:24:29.545Z,99.90
2018-05-06T09:26:55.601Z,99.90
2018-05-06T09:29:22.396Z,99.90
2018-05-06T09:31:48.415Z,99.90
2018-05-06T09:34:14.512Z,99.90
2018-05-06T09:36:40.569Z,99.90
2018-05-06T09:39:06.749Z,99.90
2018-05-06T09:41:32.848Z,99.90
2018-05-06T09:43:59.629Z,99.90
2018-05-06T09:46:25.709Z,99.90
2018-05-06T09:48:51.775Z,99.90
2018-05-06T09:51:17.812Z,99.90
2018-05-06T09:53:43.967Z,99.90
2018-05-06T09:56:09.973Z,99.90
2018-05-06T09:58:36.154Z,99.90
2018-05-06T10:01:02.648Z,99.90
2018-05-06T10:03:28.686Z,99.90
2018-05-06T10:05:54.747Z,99.90
2018-05-06T10:08:20.824Z,99.90
2018-05-06T10:10:47.599Z,99.90
2018-05-06T10:13:13.672Z,99.90
2018-05-06T10:15:39.699Z,99.90
2018-05-06T10:18:05.730Z,99.40
2018-05-06T10:20:31.781Z,98.50
2018-05-06T10:22:58.035Z,98.10
2018-05-06T10:25:24.834Z,98.10
2018-05-06T10:27:50.911Z,98.10
2018-05-06T10:30:16.980Z,96.50
2018-05-06T10:32:43.776Z,94.10
2018-05-06T10:35:09.812Z,94.10
2018-05-06T10:37:35.879Z,93.30
2018-05-06T10:40:01.949Z,93.10
2018-05-06T10:42:28.014Z,93.00
2018-05-06T10:44:54.099Z,93.70
2018-05-06T10:47:20.968Z,92.10
2018-05-06T10:49:47.088Z,91.90
2018-05-06T10:52:13.180Z,91.20
2018-05-06T10:54:39.310Z,90.20
2018-05-06T10:57:05.365Z,86.70
2018-05-06T10:59:31.580Z,85.80
2018-05-06T11:01:57.716Z,85.60
2018-05-06T11:04:23.766Z,86.40
2018-05-06T11:06:49.890Z,81.40
2018-05-06T11:09:17.281Z,75.10
2018-05-06T11:11:43.351Z,75.00
2018-05-06T11:14:09.446Z,70.00
2018-05-06T11:16:35.555Z,66.70
2018-05-06T11:19:01.618Z,61.40
2018-05-06T11:21:27.740Z,55.30
2018-05-06T11:23:54.092Z,56.20
2018-05-06T11:26:20.161Z,53.70
2018-05-06T11:28:46.341Z,49.30
2018-05-06T11:31:13.251Z,46.70
2018-05-06T11:33:39.375Z,46.70
2018-05-06T11:36:05.438Z,45.50
2018-05-06T11:38:31.517Z,43.90
2018-05-06T11:40:57.653Z,41.90
2018-05-06T11:43:23.744Z,40.60
2018-05-06T11:45:49.812Z,40.10
2018-05-06T11:48:15.979Z,40.40
2018-05-06T11:50:42.895Z,39.30
2018-05-06T11:53:08.954Z,39.20
2018-05-06T11:55:34.996Z,37.70
2018-05-06T11:58:01.056Z,36.10
2018-05-06T12:00:27.870Z,36.50
2018-05-06T12:02:54.078Z,36.50
2018-05-06T12:05:20.249Z,37.60
2018-05-06T12:07:46.298Z,36.40
2018-05-06T12:10:12.430Z,36.40
2018-05-06T12:12:38.498Z,35.00
2018-05-06T12:15:04.559Z,35.00
2018-05-06T12:17:30.743Z,34.70
2018-05-06T12:19:56.811Z,34.00
2018-05-06T12:22:22.881Z,32.40
2018-05-06T12:24:48.947Z,32.40
2018-05-06T12:27:15.032Z,31.60
2018-05-06T12:29:41.212Z,31.10
2018-05-06T12:32:07.279Z,31.30
2018-05-06T12:34:33.319Z,31.40
2018-05-06T12:36:59.387Z,30.70
2018-05-06T12:39:26.161Z,31.70
2018-05-06T12:41:52.230Z,31.60
2018-05-06T12:44:18.271Z,33.10
2018-05-06T12:46:44.383Z,30.70
2018-05-06T12:49:10.520Z,30.60
2018-05-06T12:51:36.578Z,29.60
2018-05-06T12:54:03.382Z,29.80
2018-05-06T12:56:30.204Z,28.30
2018-05-06T12:58:56.235Z,28.30
2018-05-06T13:01:22.277Z,28.90
2018-05-06T13:03:48.309Z,29.00
2018-05-06T13:06:14.360Z,28.90
2018-05-06T13:08:40.432Z,29.40
2018-05-06T13:11:06.463Z,28.70
2018-05-06T13:13:33.354Z,27.40
2018-05-06T13:15:59.424Z,27.40
2018-05-06T13:18:25.436Z,27.20
2018-05-06T13:20:51.459Z,27.10
2018-05-06T13:23:17.517Z,27.20
2018-05-06T13:25:43.825Z,26.80
2018-05-06T13:28:09.901Z,27.20
2018-05-06T13:30:36.698Z,27.10
2018-05-06T13:33:03.608Z,26.90
2018-05-06T13:35:29.784Z,27.00
2018-05-06T13:37:56.591Z,26.40
2018-05-06T13:40:22.884Z,26.40
2018-05-06T13:42:49.714Z,26.00
2018-05-06T13:45:15.899Z,25.90
2018-05-06T13:47:42.022Z,25.10
2018-05-06T13:50:08.991Z,25.00
2018-05-06T13:52:34.906Z,24.90
2018-05-06T13:55:01.004Z,25.50
2018-05-06T13:57:27.130Z,26.20
2018-05-06T13:59:53.153Z,26.70
2018-05-06T14:02:19.173Z,25.90
2018-05-06T14:04:45.999Z,25.70
2018-05-06T14:07:12.215Z,25.60
2018-05-06T14:09:38.286Z,25.10
2018-05-06T14:12:04.336Z,24.90
2018-05-06T14:14:30.386Z,31.00
2018-05-06T14:16:57.192Z,24.30
2018-05-06T14:19:23.256Z,24.20
2018-05-06T14:21:50.432Z,24.40
2018-05-06T14:24:16.573Z,24.20
2018-05-06T14:26:42.683Z,24.30
2018-05-06T14:29:08.749Z,24.40
2018-05-06T14:31:35.529Z,23.80
2018-05-06T14:34:01.601Z,23.70
2018-05-06T14:36:28.413Z,23.00
2018-05-06T14:38:54.456Z,23.00
2018-05-06T14:41:20.535Z,24.00
2018-05-06T14:43:46.605Z,23.00
2018-05-06T14:46:25.050Z,23.80
2018-05-06T14:48:51.128Z,24.50
2018-05-06T14:51:17.197Z,23.50
2018-05-06T14:53:43.273Z,23.90
2018-05-06T14:56:09.285Z,23.70
2018-05-06T14:58:36.448Z,24.20
2018-05-06T15:01:04.128Z,22.60
2018-05-06T15:03:30.902Z,22.80
2018-05-06T15:05:56.973Z,22.70
2018-05-06T15:08:22.998Z,23.30
2018-05-06T15:10:49.154Z,24.00
2018-05-06T15:13:15.199Z,24.70
2018-05-06T15:15:41.344Z,23.20
2018-05-06T15:18:07.396Z,23.50
2018-05-06T15:20:34.169Z,23.30
2018-05-06T15:23:01.010Z,22.90
2018-05-06T15:25:27.058Z,22.90
2018-05-06T15:27:53.860Z,23.50
2018-05-06T15:30:19.926Z,23.50
2018-05-06T15:32:46.325Z,24.50
2018-05-06T15:35:12.516Z,24.10
2018-05-06T15:37:38.579Z,23.40
2018-05-06T15:40:12.289Z,23.30
2018-05-06T15:42:39.294Z,23.00
2018-05-06T15:45:05.333Z,23.00
2018-05-06T15:47:31.373Z,23.00
2018-05-06T15:49:57.784Z,22.70
2018-05-06T15:52:23.852Z,22.70
2018-05-06T15:54:49.884Z,23.00
2018-05-06T15:57:15.928Z,23.90
2018-05-06T15:59:41.982Z,23.70
2018-05-06T16:02:16.950Z,23.80
2018-05-06T16:04:43.025Z,23.70
2018-05-06T16:07:09.060Z,23.00
2018-05-06T16:09:35.493Z,23.60
2018-05-06T16:12:01.623Z,23.40
2018-05-06T16:14:27.641Z,23.10
2018-05-06T16:16:53.684Z,22.90
2018-05-06T16:19:19.731Z,22.90
2018-05-06T16:21:46.625Z,23.50
2018-05-06T16:24:12.825Z,23.50
2018-05-06T16:26:39.602Z,23.00
2018-05-06T16:29:05.653Z,23.00
2018-05-06T16:31:31.669Z,23.80
2018-05-06T16:33:57.733Z,23.80
2018-05-06T16:36:23.885Z,24.20
2018-05-06T16:38:49.961Z,24.10
2018-05-06T16:41:16.083Z,24.00
2018-05-06T16:43:42.174Z,24.00
2018-05-06T16:46:08.234Z,24.30
2018-05-06T16:48:34.302Z,23.90
2018-05-06T16:51:00.369Z,24.00
2018-05-06T16:53:26.517Z,23.90
2018-05-06T16:55:52.546Z,23.40
2018-05-06T16:58:19.591Z,24.30
2018-05-06T17:00:45.625Z,24.30
2018-05-06T17:03:12.436Z,25.00
2018-05-06T17:05:38.506Z,24.70
2018-05-06T17:08:04.581Z,24.60
2018-05-06T17:10:30.672Z,24.80
2018-05-06T17:12:56.737Z,24.90
2018-05-06T17:15:23.818Z,26.10
2018-05-06T17:17:49.899Z,26.10
2018-05-06T17:20:15.936Z,27.40
2018-05-06T17:22:42.046Z,28.80
2018-05-06T17:25:08.119Z,29.80
2018-05-06T17:27:47.148Z,31.70
2018-05-06T17:30:13.188Z,33.30
2018-05-06T17:32:39.234Z,35.00
2018-05-06T17:35:05.320Z,35.60
2018-05-06T17:37:31.390Z,36.60
2018-05-06T17:39:57.426Z,37.60
2018-05-06T17:42:23.510Z,38.10
2018-05-06T17:44:49.554Z,38.50
2018-05-06T17:47:15.704Z,38.90
2018-05-06T17:49:42.593Z,40.10
2018-05-06T17:52:08.641Z,40.00
2018-05-06T17:54:34.724Z,40.50
2018-05-06T17:57:00.816Z,40.80
2018-05-06T17:59:26.904Z,41.20
2018-05-06T18:01:53.123Z,42.20
2018-05-06T18:04:19.189Z,43.20
2018-05-06T18:06:45.977Z,45.10
2018-05-06T18:09:12.060Z,44.50
2018-05-06T18:11:38.912Z,45.10
2018-05-06T18:14:04.941Z,45.00
2018-05-06T18:16:30.987Z,45.30
2018-05-06T18:18:57.070Z,45.70
2018-05-06T18:21:23.094Z,45.90
2018-05-06T18:23:49.138Z,46.40
2018-05-06T18:26:16.025Z,46.70
2018-05-06T18:28:42.125Z,46.80
2018-05-06T18:31:08.145Z,47.10
2018-05-06T18:33:34.964Z,47.20
2018-05-06T18:36:00.993Z,47.20
2018-05-06T18:38:27.106Z,47.40
2018-05-06T18:40:53.167Z,47.50
2018-05-06T18:43:19.212Z,48.30
2018-05-06T18:45:45.315Z,48.10
2018-05-06T18:48:11.802Z,48.50
2018-05-06T18:50:37.836Z,48.70
2018-05-06T18:53:03.861Z,49.00
2018-05-06T18:55:29.937Z,49.10
2018-05-06T18:57:55.956Z,49.50
2018-05-06T19:00:21.979Z,49.70
2018-05-06T19:02:48.053Z,50.10
2018-05-06T19:05:14.064Z,50.90
2018-05-06T19:07:40.105Z,51.10
2018-05-06T19:10:06.162Z,52.10
2018-05-06T19:12:32.198Z,52.10
2018-05-06T19:14:58.277Z,53.00
2018-05-06T19:17:24.406Z,53.40
2018-05-06T19:19:50.576Z,54.80
2018-05-06T19:22:16.605Z,56.40
2018-05-06T19:24:42.716Z,59.00
2018-05-06T19:27:09.042Z,62.40
2018-05-06T19:29:35.854Z,79.10
2018-05-06T19:32:01.867Z,79.10
2018-05-06T19:34:27.971Z,90.80
2018-05-06T19:36:54.804Z,99.90
2018-05-06T19:39:20.872Z,99.90
2018-05-06T19:41:47.724Z,99.90
2018-05-06T19:44:14.519Z,99.90
2018-05-06T19:46:40.630Z,99.90
2018-05-06T19:49:06.686Z,99.90
2018-05-06T19:51:33.542Z,99.90
2018-05-06T19:53:59.591Z,99.90
2018-05-06T19:56:25.644Z,99.90
2018-05-06T19:58:52.064Z,99.90
2018-05-06T20:01:18.108Z,99.90
2018-05-06T20:03:44.225Z,99.90
2018-05-06T20:06:10.291Z,99.90
2018-05-06T20:08:36.328Z,99.90
2018-05-06T20:11:02.474Z,99.90
2018-05-06T20:13:35.818Z,99.90
2018-05-06T20:16:01.995Z,99.90
2018-05-06T20:18:28.024Z,99.90
2018-05-06T20:20:54.197Z,99.90
2018-05-06T20:23:20.213Z,99.90
2018-05-06T20:25:46.236Z,99.90
2018-05-06T20:28:12.291Z,99.90
2018-05-06T20:30:38.284Z,99.90
2018-05-06T20:33:05.055Z,99.90
2018-05-06T20:35:31.866Z,99.90
2018-05-06T20:37:58.653Z,99.90
2018-05-06T20:40:25.447Z,99.90
2018-05-06T20:42:51.473Z,99.90
2018-05-06T20:45:17.516Z,99.90
2018-05-06T20:47:43.578Z,99.90
2018-05-06T20:50:10.003Z,99.90
2018-05-06T20:52:36.081Z,99.90
2018-05-06T20:55:02.132Z,99.90
2018-05-06T20:57:28.359Z,99.90
2018-05-06T21:02:27.080Z,99.90
2018-05-06T21:04:53.137Z,99.90
2018-05-06T21:07:19.158Z,99.90
2018-05-06T21:09:45.323Z,99.90
2018-05-06T21:12:11.374Z,99.90
2018-05-06T21:14:37.407Z,99.90
2018-05-06T21:17:03.430Z,99.90
2018-05-06T21:19:30.176Z,99.90
2018-05-06T21:21:56.192Z,99.90
2018-05-06T21:24:22.460Z,99.90
2018-05-06T21:26:48.495Z,99.90
2018-05-06T21:29:14.764Z,99.90
2018-05-06T21:31:40.977Z,99.90
2018-05-06T21:34:07.766Z,99.90
2018-05-06T21:36:33.760Z,99.90
2018-05-06T21:38:59.820Z,99.90
2018-05-06T21:41:25.885Z,99.90
2018-05-06T21:43:51.917Z,99.90
2018-05-06T21:46:17.950Z,99.90
2018-05-06T21:48:44.007Z,99.90
2018-05-06T21:51:10.028Z,99.90
2018-05-06T21:53:36.064Z,99.90
2018-05-06T21:56:02.393Z,99.90
2018-05-06T21:58:29.217Z,99.90
2018-05-06T22:00:55.222Z,99.90
2018-05-06T22:03:21.256Z,99.90
2018-05-06T22:05:47.325Z,99.90
2018-05-06T22:08:13.346Z,99.90
2018-05-06T22:10:39.382Z,99.90
2018-05-06T22:13:05.675Z,99.90
2018-05-06T22:15:32.448Z,99.90
2018-05-06T22:17:58.467Z,99.90
2018-05-06T22:20:25.260Z,99.90
2018-05-06T22:22:51.274Z,99.90
2018-05-06T22:25:17.333Z,99.90
2018-05-06T22:27:43.376Z,99.90
2018-05-06T22:30:09.405Z,99.90
2018-05-06T22:32:35.444Z,99.90
2018-05-06T22:35:01.486Z,99.90
2018-05-06T22:37:27.722Z,99.90
2018-05-06T22:39:53.781Z,99.90
2018-05-06T22:42:19.817Z,99.90
2018-05-06T22:44:45.869Z,99.90
2018-05-06T22:47:12.025Z,99.90
2018-05-06T22:49:38.816Z,99.90
2018-05-06T22:52:04.821Z,99.90
2018-05-06T22:54:30.865Z,99.90
2018-05-06T22:56:56.914Z,99.90
2018-05-06T22:59:22.969Z,99.90
2018-05-06T23:01:49.015Z,99.90
2018-05-06T23:04:15.078Z,99.90
2018-05-06T23:06:41.129Z,99.90
2018-05-06T23:09:07.913Z,99.90
2018-05-06T23:11:33.946Z,99.90
2018-05-06T23:13:59.993Z,99.90
2018-05-06T23:16:26.017Z,99.90
2018-05-06T23:18:52.051Z,99.90
2018-05-06T23:21:18.868Z,99.90
2018-05-06T23:23:45.014Z,99.90
2018-05-06T23:26:11.039Z,99.90
2018-05-06T23:28:37.085Z,99.90
2018-05-06T23:31:03.118Z,99.90
2018-05-06T23:33:29.191Z,99.90
2018-05-06T23:35:55.207Z,99.90
2018-05-06T23:38:21.232Z,99.90
2018-05-06T23:40:47.258Z,99.90
2018-05-06T23:43:13.306Z,99.90
2018-05-06T23:45:39.363Z,99.90
2018-05-06T23:48:06.161Z,99.90
2018-05-06T23:50:32.183Z,99.90
2018-05-06T23:52:58.350Z,99.90
2018-05-06T23:55:24.397Z,99.90
2018-05-06T23:57:50.459Z,99.90
